sensor_id;sensor_type;location;lat;lon;timestamp;P1;durP1;ratioP1;P2;durP2;ratioP2
44197;SDS011;30157;55.512;37.764;2022-12-01T00:00:38;30.55;;;12.93;;
44197;SDS011;30157;55.512;37.764;2022-12-01T00:03:03;42.85;;;12.20;;
44197;SDS011;30157;55.512;37.764;2022-12-01T00:05:29;40.28;;;13.35;;
44197;SDS011;30157;55.512;37.764;2022-12-01T00:07:56;36.10;;;12.00;;
44197;SDS011;30157;55.512;37.764;2022-12-01T00:10:24;30.88;;;11.95;;
44197;SDS011;30157;55.512;37.764;2022-12-01T00:12:50;36.33;;;12.48;;
44197;SDS011;30157;55.512;37.764;2022-12-01T00:15:20;32.75;;;12.30;;
44197;SDS011;30157;55.512;37.764;2022-12-01T00:17:47;31.90;;;11.95;;
44197;SDS011;30157;55.512;37.764;2022-12-01T00:20:14;34.88;;;13.30;;
44197;SDS011;30157;55.512;37.764;2022-12-01T00:22:44;38.60;;;14.27;;
44197;SDS011;30157;55.512;37.764;2022-12-01T00:25:11;30.17;;;12.93;;
44197;SDS011;30157;55.512;37.764;2022-12-01T00:27:38;36.38;;;12.93;;
44197;SDS011;30157;55.512;37.764;2022-12-01T00:30:05;34.70;;;13.48;;
44197;SDS011;30157;55.512;37.764;2022-12-01T00:32:32;38.30;;;13.60;;
44197;SDS011;30157;55.512;37.764;2022-12-01T00:34:58;33.00;;;11.95;;
44197;SDS011;30157;55.512;37.764;2022-12-01T00:37:24;37.90;;;13.38;;
44197;SDS011;30157;55.512;37.764;2022-12-01T00:39:50;33.80;;;11.63;;
44197;SDS011;30157;55.512;37.764;2022-12-01T00:42:15;35.25;;;12.73;;
44197;SDS011;30157;55.512;37.764;2022-12-01T00:44:45;34.75;;;13.10;;
44197;SDS011;30157;55.512;37.764;2022-12-01T00:47:12;35.53;;;13.30;;
44197;SDS011;30157;55.512;37.764;2022-12-01T00:49:38;34.92;;;10.68;;
44197;SDS011;30157;55.512;37.764;2022-12-01T00:52:04;35.75;;;13.18;;
44197;SDS011;30157;55.512;37.764;2022-12-01T00:54:30;36.78;;;12.68;;
44197;SDS011;30157;55.512;37.764;2022-12-01T00:56:59;33.15;;;12.32;;
44197;SDS011;30157;55.512;37.764;2022-12-01T00:59:24;35.17;;;12.63;;
44197;SDS011;30157;55.512;37.764;2022-12-01T01:01:50;34.83;;;12.93;;
44197;SDS011;30157;55.512;37.764;2022-12-01T01:04:17;37.10;;;11.88;;
44197;SDS011;30157;55.512;37.764;2022-12-01T01:06:43;28.05;;;11.73;;
44197;SDS011;30157;55.512;37.764;2022-12-01T01:09:09;28.88;;;11.60;;
44197;SDS011;30157;55.512;37.764;2022-12-01T01:11:35;35.90;;;12.45;;
44197;SDS011;30157;55.512;37.764;2022-12-01T01:14:01;30.75;;;13.20;;
44197;SDS011;30157;55.512;37.764;2022-12-01T01:16:27;31.08;;;11.57;;
44197;SDS011;30157;55.512;37.764;2022-12-01T01:18:53;35.78;;;12.23;;
44197;SDS011;30157;55.512;37.764;2022-12-01T01:21:20;37.42;;;13.55;;
44197;SDS011;30157;55.512;37.764;2022-12-01T01:23:47;34.75;;;11.93;;
44197;SDS011;30157;55.512;37.764;2022-12-01T01:28:43;29.27;;;11.98;;
44197;SDS011;30157;55.512;37.764;2022-12-01T01:31:10;35.88;;;12.52;;
44197;SDS011;30157;55.512;37.764;2022-12-01T01:33:39;37.95;;;12.88;;
44197;SDS011;30157;55.512;37.764;2022-12-01T01:36:05;36.65;;;12.82;;
44197;SDS011;30157;55.512;37.764;2022-12-01T01:38:31;32.97;;;12.60;;
44197;SDS011;30157;55.512;37.764;2022-12-01T01:40:58;29.17;;;11.02;;
44197;SDS011;30157;55.512;37.764;2022-12-01T01:43:40;32.10;;;12.35;;
44197;SDS011;30157;55.512;37.764;2022-12-01T01:46:12;26.85;;;10.20;;
44197;SDS011;30157;55.512;37.764;2022-12-01T01:48:41;33.38;;;12.85;;
44197;SDS011;30157;55.512;37.764;2022-12-01T01:51:09;35.17;;;12.45;;
44197;SDS011;30157;55.512;37.764;2022-12-01T01:53:37;26.48;;;10.38;;
44197;SDS011;30157;55.512;37.764;2022-12-01T01:56:03;37.25;;;12.82;;
44197;SDS011;30157;55.512;37.764;2022-12-01T01:58:30;30.33;;;11.02;;
44197;SDS011;30157;55.512;37.764;2022-12-01T02:00:57;28.15;;;10.48;;
44197;SDS011;30157;55.512;37.764;2022-12-01T02:03:23;32.50;;;12.10;;
44197;SDS011;30157;55.512;37.764;2022-12-01T02:05:50;27.90;;;10.82;;
44197;SDS011;30157;55.512;37.764;2022-12-01T02:08:16;26.13;;;10.65;;
44197;SDS011;30157;55.512;37.764;2022-12-01T02:18:21;29.42;;;11.15;;
44197;SDS011;30157;55.512;37.764;2022-12-01T02:38:10;28.35;;;10.00;;
44197;SDS011;30157;55.512;37.764;2022-12-01T02:40:25;31.05;;;11.48;;
44197;SDS011;30157;55.512;37.764;2022-12-01T02:43:25;30.65;;;11.40;;
44197;SDS011;30157;55.512;37.764;2022-12-01T02:45:55;27.23;;;10.63;;
44197;SDS011;30157;55.512;37.764;2022-12-01T02:48:26;25.05;;;10.85;;
44197;SDS011;30157;55.512;37.764;2022-12-01T02:54:02;26.90;;;10.45;;
44197;SDS011;30157;55.512;37.764;2022-12-01T02:56:29;31.27;;;12.35;;
44197;SDS011;30157;55.512;37.764;2022-12-01T02:58:55;28.95;;;11.20;;
44197;SDS011;30157;55.512;37.764;2022-12-01T03:04:12;31.13;;;11.30;;
44197;SDS011;30157;55.512;37.764;2022-12-01T03:12:37;22.15;;;8.77;;
44197;SDS011;30157;55.512;37.764;2022-12-01T03:15:27;24.30;;;10.77;;
44197;SDS011;30157;55.512;37.764;2022-12-01T03:21:54;34.22;;;12.43;;
44197;SDS011;30157;55.512;37.764;2022-12-01T03:24:19;26.42;;;9.98;;
44197;SDS011;30157;55.512;37.764;2022-12-01T03:26:48;32.47;;;11.93;;
44197;SDS011;30157;55.512;37.764;2022-12-01T03:29:25;25.52;;;10.13;;
44197;SDS011;30157;55.512;37.764;2022-12-01T03:31:55;29.45;;;11.00;;
44197;SDS011;30157;55.512;37.764;2022-12-01T03:34:33;25.52;;;8.90;;
44197;SDS011;30157;55.512;37.764;2022-12-01T03:37:09;33.47;;;10.93;;
44197;SDS011;30157;55.512;37.764;2022-12-01T03:40:04;29.35;;;9.93;;
44197;SDS011;30157;55.512;37.764;2022-12-01T03:42:40;28.80;;;10.27;;
44197;SDS011;30157;55.512;37.764;2022-12-01T03:48:02;25.58;;;10.40;;
44197;SDS011;30157;55.512;37.764;2022-12-01T03:50:30;30.00;;;10.35;;
44197;SDS011;30157;55.512;37.764;2022-12-01T03:53:07;34.57;;;11.13;;
44197;SDS011;30157;55.512;37.764;2022-12-01T03:55:43;29.38;;;10.88;;
44197;SDS011;30157;55.512;37.764;2022-12-01T03:58:17;28.98;;;10.13;;
44197;SDS011;30157;55.512;37.764;2022-12-01T04:00:48;31.02;;;10.52;;
44197;SDS011;30157;55.512;37.764;2022-12-01T04:03:18;30.77;;;11.50;;
44197;SDS011;30157;55.512;37.764;2022-12-01T04:05:47;28.45;;;10.23;;
44197;SDS011;30157;55.512;37.764;2022-12-01T04:08:13;27.15;;;10.25;;
44197;SDS011;30157;55.512;37.764;2022-12-01T04:10:39;35.53;;;12.18;;
44197;SDS011;30157;55.512;37.764;2022-12-01T04:13:04;31.50;;;11.45;;
44197;SDS011;30157;55.512;37.764;2022-12-01T04:15:30;32.13;;;11.40;;
44197;SDS011;30157;55.512;37.764;2022-12-01T04:17:56;31.95;;;11.65;;
44197;SDS011;30157;55.512;37.764;2022-12-01T04:20:21;23.88;;;10.32;;
44197;SDS011;30157;55.512;37.764;2022-12-01T04:22:47;30.83;;;11.05;;
44197;SDS011;30157;55.512;37.764;2022-12-01T04:25:16;28.88;;;11.77;;
44197;SDS011;30157;55.512;37.764;2022-12-01T04:27:41;28.65;;;11.05;;
44197;SDS011;30157;55.512;37.764;2022-12-01T04:30:07;27.70;;;10.30;;
44197;SDS011;30157;55.512;37.764;2022-12-01T04:32:37;29.95;;;11.52;;
44197;SDS011;30157;55.512;37.764;2022-12-01T04:35:07;33.65;;;10.93;;
44197;SDS011;30157;55.512;37.764;2022-12-01T04:37:34;27.55;;;9.90;;
44197;SDS011;30157;55.512;37.764;2022-12-01T04:39:59;32.10;;;11.07;;
44197;SDS011;30157;55.512;37.764;2022-12-01T04:42:25;29.40;;;10.60;;
44197;SDS011;30157;55.512;37.764;2022-12-01T04:44:51;30.45;;;10.65;;
44197;SDS011;30157;55.512;37.764;2022-12-01T04:47:16;31.58;;;12.13;;
44197;SDS011;30157;55.512;37.764;2022-12-01T04:49:42;36.63;;;11.38;;
44197;SDS011;30157;55.512;37.764;2022-12-01T04:52:07;39.83;;;12.75;;
44197;SDS011;30157;55.512;37.764;2022-12-01T04:54:33;31.08;;;11.00;;
44197;SDS011;30157;55.512;37.764;2022-12-01T04:56:59;31.15;;;12.27;;
44197;SDS011;30157;55.512;37.764;2022-12-01T04:59:24;31.50;;;12.10;;
44197;SDS011;30157;55.512;37.764;2022-12-01T05:01:50;31.60;;;10.90;;
44197;SDS011;30157;55.512;37.764;2022-12-01T05:04:16;34.47;;;10.27;;
44197;SDS011;30157;55.512;37.764;2022-12-01T05:06:42;28.92;;;10.55;;
44197;SDS011;30157;55.512;37.764;2022-12-01T05:09:09;31.00;;;11.80;;
44197;SDS011;30157;55.512;37.764;2022-12-01T05:11:38;26.70;;;10.20;;
44197;SDS011;30157;55.512;37.764;2022-12-01T05:14:03;31.67;;;11.73;;
44197;SDS011;30157;55.512;37.764;2022-12-01T05:16:30;28.90;;;10.43;;
44197;SDS011;30157;55.512;37.764;2022-12-01T05:18:57;27.95;;;11.23;;
44197;SDS011;30157;55.512;37.764;2022-12-01T05:21:44;30.08;;;10.50;;
44197;SDS011;30157;55.512;37.764;2022-12-01T05:24:11;33.28;;;11.25;;
44197;SDS011;30157;55.512;37.764;2022-12-01T05:26:38;31.42;;;11.25;;
44197;SDS011;30157;55.512;37.764;2022-12-01T05:29:05;28.08;;;10.75;;
44197;SDS011;30157;55.512;37.764;2022-12-01T05:31:31;34.55;;;12.35;;
44197;SDS011;30157;55.512;37.764;2022-12-01T05:33:57;33.50;;;11.77;;
44197;SDS011;30157;55.512;37.764;2022-12-01T05:36:23;32.10;;;11.48;;
44197;SDS011;30157;55.512;37.764;2022-12-01T05:38:48;28.63;;;11.50;;
44197;SDS011;30157;55.512;37.764;2022-12-01T05:41:14;33.58;;;11.50;;
44197;SDS011;30157;55.512;37.764;2022-12-01T05:43:40;32.88;;;10.73;;
44197;SDS011;30157;55.512;37.764;2022-12-01T05:46:05;25.10;;;10.95;;
44197;SDS011;30157;55.512;37.764;2022-12-01T05:48:31;28.90;;;11.10;;
44197;SDS011;30157;55.512;37.764;2022-12-01T05:50:56;29.90;;;11.18;;
44197;SDS011;30157;55.512;37.764;2022-12-01T05:53:22;30.27;;;10.90;;
44197;SDS011;30157;55.512;37.764;2022-12-01T05:55:52;33.85;;;10.43;;
44197;SDS011;30157;55.512;37.764;2022-12-01T05:58:18;27.00;;;10.95;;
44197;SDS011;30157;55.512;37.764;2022-12-01T06:00:45;31.98;;;11.05;;
44197;SDS011;30157;55.512;37.764;2022-12-01T06:03:10;33.88;;;11.65;;
44197;SDS011;30157;55.512;37.764;2022-12-01T06:05:36;31.92;;;11.98;;
44197;SDS011;30157;55.512;37.764;2022-12-01T06:08:02;27.85;;;10.77;;
44197;SDS011;30157;55.512;37.764;2022-12-01T06:10:27;27.52;;;10.18;;
44197;SDS011;30157;55.512;37.764;2022-12-01T06:12:53;29.80;;;11.30;;
44197;SDS011;30157;55.512;37.764;2022-12-01T06:15:19;30.70;;;11.02;;
44197;SDS011;30157;55.512;37.764;2022-12-01T06:17:44;29.08;;;10.98;;
44197;SDS011;30157;55.512;37.764;2022-12-01T06:20:10;32.58;;;12.25;;
44197;SDS011;30157;55.512;37.764;2022-12-01T06:22:37;34.17;;;12.98;;
44197;SDS011;30157;55.512;37.764;2022-12-01T06:25:02;29.55;;;11.05;;
44197;SDS011;30157;55.512;37.764;2022-12-01T06:27:28;27.65;;;10.27;;
44197;SDS011;30157;55.512;37.764;2022-12-01T06:29:54;30.30;;;11.30;;
44197;SDS011;30157;55.512;37.764;2022-12-01T06:32:20;38.47;;;12.50;;
44197;SDS011;30157;55.512;37.764;2022-12-01T06:34:46;30.33;;;12.07;;
44197;SDS011;30157;55.512;37.764;2022-12-01T06:37:11;31.25;;;11.02;;
44197;SDS011;30157;55.512;37.764;2022-12-01T06:39:39;30.80;;;11.48;;
44197;SDS011;30157;55.512;37.764;2022-12-01T06:42:05;29.55;;;11.55;;
44197;SDS011;30157;55.512;37.764;2022-12-01T06:44:31;37.78;;;12.57;;
44197;SDS011;30157;55.512;37.764;2022-12-01T06:46:57;39.20;;;12.98;;
44197;SDS011;30157;55.512;37.764;2022-12-01T06:49:22;38.53;;;14.25;;
44197;SDS011;30157;55.512;37.764;2022-12-01T06:51:48;29.95;;;12.40;;
44197;SDS011;30157;55.512;37.764;2022-12-01T06:54:14;42.00;;;14.50;;
44197;SDS011;30157;55.512;37.764;2022-12-01T06:56:42;32.80;;;12.93;;
44197;SDS011;30157;55.512;37.764;2022-12-01T06:59:08;37.85;;;13.65;;
44197;SDS011;30157;55.512;37.764;2022-12-01T07:01:34;33.53;;;14.80;;
44197;SDS011;30157;55.512;37.764;2022-12-01T07:04:00;35.33;;;13.50;;
44197;SDS011;30157;55.512;37.764;2022-12-01T07:06:28;33.80;;;13.27;;
44197;SDS011;30157;55.512;37.764;2022-12-01T07:08:54;33.05;;;13.38;;
44197;SDS011;30157;55.512;37.764;2022-12-01T07:11:20;35.70;;;14.52;;
44197;SDS011;30157;55.512;37.764;2022-12-01T07:13:45;33.35;;;13.93;;
44197;SDS011;30157;55.512;37.764;2022-12-01T07:16:13;32.70;;;13.23;;
44197;SDS011;30157;55.512;37.764;2022-12-01T07:18:40;30.80;;;13.70;;
44197;SDS011;30157;55.512;37.764;2022-12-01T07:21:09;33.10;;;13.18;;
44197;SDS011;30157;55.512;37.764;2022-12-01T07:23:37;37.10;;;13.93;;
44197;SDS011;30157;55.512;37.764;2022-12-01T07:26:05;33.15;;;14.63;;
44197;SDS011;30157;55.512;37.764;2022-12-01T07:28:33;35.50;;;13.48;;
44197;SDS011;30157;55.512;37.764;2022-12-01T07:31:04;39.20;;;14.05;;
44197;SDS011;30157;55.512;37.764;2022-12-01T07:33:32;31.08;;;13.02;;
44197;SDS011;30157;55.512;37.764;2022-12-01T07:35:58;36.60;;;13.60;;
44197;SDS011;30157;55.512;37.764;2022-12-01T07:38:26;33.22;;;13.93;;
44197;SDS011;30157;55.512;37.764;2022-12-01T07:40:53;33.88;;;13.55;;
44197;SDS011;30157;55.512;37.764;2022-12-01T07:43:18;34.53;;;12.77;;
44197;SDS011;30157;55.512;37.764;2022-12-01T07:45:44;33.00;;;12.32;;
44197;SDS011;30157;55.512;37.764;2022-12-01T07:48:10;32.85;;;14.48;;
44197;SDS011;30157;55.512;37.764;2022-12-01T07:50:35;34.38;;;14.85;;
44197;SDS011;30157;55.512;37.764;2022-12-01T07:53:01;31.30;;;14.43;;
44197;SDS011;30157;55.512;37.764;2022-12-01T07:55:27;30.70;;;15.00;;
44197;SDS011;30157;55.512;37.764;2022-12-01T07:57:53;36.05;;;15.75;;
44197;SDS011;30157;55.512;37.764;2022-12-01T08:00:18;38.85;;;16.85;;
44197;SDS011;30157;55.512;37.764;2022-12-01T08:02:46;38.97;;;16.75;;
44197;SDS011;30157;55.512;37.764;2022-12-01T08:05:13;35.72;;;15.30;;
44197;SDS011;30157;55.512;37.764;2022-12-01T08:07:39;35.15;;;15.70;;
44197;SDS011;30157;55.512;37.764;2022-12-01T08:10:05;39.97;;;16.48;;
44197;SDS011;30157;55.512;37.764;2022-12-01T08:12:31;34.53;;;16.27;;
44197;SDS011;30157;55.512;37.764;2022-12-01T08:14:56;37.88;;;17.58;;
44197;SDS011;30157;55.512;37.764;2022-12-01T08:17:22;35.33;;;15.07;;
44197;SDS011;30157;55.512;37.764;2022-12-01T08:19:55;36.70;;;17.08;;
44197;SDS011;30157;55.512;37.764;2022-12-01T08:22:21;36.95;;;16.23;;
44197;SDS011;30157;55.512;37.764;2022-12-01T08:24:46;38.22;;;17.60;;
44197;SDS011;30157;55.512;37.764;2022-12-01T08:27:12;38.92;;;18.73;;
44197;SDS011;30157;55.512;37.764;2022-12-01T08:29:38;37.97;;;18.65;;
44197;SDS011;30157;55.512;37.764;2022-12-01T08:32:03;41.08;;;18.63;;
44197;SDS011;30157;55.512;37.764;2022-12-01T08:34:29;38.17;;;18.52;;
44197;SDS011;30157;55.512;37.764;2022-12-01T08:36:55;40.88;;;19.23;;
44197;SDS011;30157;55.512;37.764;2022-12-01T08:39:21;41.45;;;17.92;;
44197;SDS011;30157;55.512;37.764;2022-12-01T08:41:46;33.80;;;16.73;;
44197;SDS011;30157;55.512;37.764;2022-12-01T08:44:12;38.53;;;18.42;;
44197;SDS011;30157;55.512;37.764;2022-12-01T08:46:38;39.95;;;17.50;;
44197;SDS011;30157;55.512;37.764;2022-12-01T08:49:04;38.78;;;16.73;;
44197;SDS011;30157;55.512;37.764;2022-12-01T08:51:31;36.95;;;16.40;;
44197;SDS011;30157;55.512;37.764;2022-12-01T08:53:57;39.80;;;17.73;;
44197;SDS011;30157;55.512;37.764;2022-12-01T08:56:32;41.13;;;17.48;;
44197;SDS011;30157;55.512;37.764;2022-12-01T08:58:59;37.17;;;16.17;;
44197;SDS011;30157;55.512;37.764;2022-12-01T09:01:25;38.95;;;16.45;;
44197;SDS011;30157;55.512;37.764;2022-12-01T09:03:52;37.30;;;16.17;;
44197;SDS011;30157;55.512;37.764;2022-12-01T09:06:34;45.17;;;17.52;;
44197;SDS011;30157;55.512;37.764;2022-12-01T09:09:05;43.20;;;15.77;;
44197;SDS011;30157;55.512;37.764;2022-12-01T09:11:31;52.90;;;19.73;;
44197;SDS011;30157;55.512;37.764;2022-12-01T09:13:57;52.10;;;19.77;;
44197;SDS011;30157;55.512;37.764;2022-12-01T09:16:24;60.85;;;23.52;;
44197;SDS011;30157;55.512;37.764;2022-12-01T09:18:49;61.17;;;23.17;;
44197;SDS011;30157;55.512;37.764;2022-12-01T09:21:16;54.35;;;21.85;;
44197;SDS011;30157;55.512;37.764;2022-12-01T09:23:47;43.85;;;17.70;;
44197;SDS011;30157;55.512;37.764;2022-12-01T09:26:13;46.33;;;18.20;;
44197;SDS011;30157;55.512;37.764;2022-12-01T09:28:43;42.65;;;18.73;;
44197;SDS011;30157;55.512;37.764;2022-12-01T09:31:10;41.15;;;18.60;;
44197;SDS011;30157;55.512;37.764;2022-12-01T09:33:37;41.28;;;16.33;;
44197;SDS011;30157;55.512;37.764;2022-12-01T09:36:04;43.95;;;17.63;;
44197;SDS011;30157;55.512;37.764;2022-12-01T09:38:32;38.30;;;16.48;;
44197;SDS011;30157;55.512;37.764;2022-12-01T09:40:59;44.50;;;19.00;;
44197;SDS011;30157;55.512;37.764;2022-12-01T09:43:32;39.92;;;16.65;;
44197;SDS011;30157;55.512;37.764;2022-12-01T09:46:15;42.67;;;17.58;;
44197;SDS011;30157;55.512;37.764;2022-12-01T09:48:50;42.72;;;17.90;;
44197;SDS011;30157;55.512;37.764;2022-12-01T09:51:21;42.40;;;17.00;;
44197;SDS011;30157;55.512;37.764;2022-12-01T09:53:51;41.97;;;16.70;;
44197;SDS011;30157;55.512;37.764;2022-12-01T09:56:24;45.42;;;16.85;;
44197;SDS011;30157;55.512;37.764;2022-12-01T09:58:52;39.97;;;16.02;;
44197;SDS011;30157;55.512;37.764;2022-12-01T10:01:35;40.22;;;17.83;;
44197;SDS011;30157;55.512;37.764;2022-12-01T10:04:13;39.25;;;15.43;;
44197;SDS011;30157;55.512;37.764;2022-12-01T10:06:50;41.63;;;16.48;;
44197;SDS011;30157;55.512;37.764;2022-12-01T10:09:38;46.20;;;16.17;;
44197;SDS011;30157;55.512;37.764;2022-12-01T10:12:18;38.03;;;15.73;;
44197;SDS011;30157;55.512;37.764;2022-12-01T10:14:47;41.65;;;17.23;;
44197;SDS011;30157;55.512;37.764;2022-12-01T10:19:50;36.83;;;16.42;;
44197;SDS011;30157;55.512;37.764;2022-12-01T10:22:43;44.58;;;16.65;;
44197;SDS011;30157;55.512;37.764;2022-12-01T10:25:27;41.85;;;16.15;;
44197;SDS011;30157;55.512;37.764;2022-12-01T10:30:50;37.97;;;14.65;;
44197;SDS011;30157;55.512;37.764;2022-12-01T10:33:24;38.75;;;15.18;;
44197;SDS011;30157;55.512;37.764;2022-12-01T10:35:51;37.40;;;14.48;;
44197;SDS011;30157;55.512;37.764;2022-12-01T10:38:27;40.53;;;16.55;;
44197;SDS011;30157;55.512;37.764;2022-12-01T10:40:58;39.97;;;16.10;;
44197;SDS011;30157;55.512;37.764;2022-12-01T10:43:48;38.63;;;15.63;;
44197;SDS011;30157;55.512;37.764;2022-12-01T10:46:18;37.47;;;15.73;;
44197;SDS011;30157;55.512;37.764;2022-12-01T10:48:51;36.75;;;15.73;;
44197;SDS011;30157;55.512;37.764;2022-12-01T10:51:19;35.90;;;16.05;;
44197;SDS011;30157;55.512;37.764;2022-12-01T10:53:47;39.03;;;16.35;;
44197;SDS011;30157;55.512;37.764;2022-12-01T10:58:53;42.47;;;15.90;;
44197;SDS011;30157;55.512;37.764;2022-12-01T11:01:22;46.40;;;17.80;;
44197;SDS011;30157;55.512;37.764;2022-12-01T11:03:51;45.55;;;17.33;;
44197;SDS011;30157;55.512;37.764;2022-12-01T11:06:23;44.97;;;18.65;;
44197;SDS011;30157;55.512;37.764;2022-12-01T11:08:52;49.17;;;18.98;;
44197;SDS011;30157;55.512;37.764;2022-12-01T11:11:27;47.50;;;19.63;;
44197;SDS011;30157;55.512;37.764;2022-12-01T11:13:53;51.15;;;19.90;;
44197;SDS011;30157;55.512;37.764;2022-12-01T11:16:35;48.65;;;18.85;;
44197;SDS011;30157;55.512;37.764;2022-12-01T11:21:46;47.42;;;18.67;;
44197;SDS011;30157;55.512;37.764;2022-12-01T11:26:52;52.72;;;19.35;;
44197;SDS011;30157;55.512;37.764;2022-12-01T11:35:13;50.78;;;18.80;;
44197;SDS011;30157;55.512;37.764;2022-12-01T11:37:49;48.10;;;18.80;;
44197;SDS011;30157;55.512;37.764;2022-12-01T11:40:19;46.92;;;17.88;;
44197;SDS011;30157;55.512;37.764;2022-12-01T11:42:50;46.30;;;19.30;;
44197;SDS011;30157;55.512;37.764;2022-12-01T11:48:04;48.15;;;19.17;;
44197;SDS011;30157;55.512;37.764;2022-12-01T11:50:31;49.35;;;18.98;;
44197;SDS011;30157;55.512;37.764;2022-12-01T11:52:59;44.67;;;18.13;;
44197;SDS011;30157;55.512;37.764;2022-12-01T11:55:27;43.90;;;17.35;;
44197;SDS011;30157;55.512;37.764;2022-12-01T11:57:55;43.22;;;17.15;;
44197;SDS011;30157;55.512;37.764;2022-12-01T12:00:26;45.17;;;16.45;;
44197;SDS011;30157;55.512;37.764;2022-12-01T12:03:09;44.30;;;16.75;;
44197;SDS011;30157;55.512;37.764;2022-12-01T12:11:50;40.85;;;15.07;;
44197;SDS011;30157;55.512;37.764;2022-12-01T12:14:24;41.13;;;15.20;;
44197;SDS011;30157;55.512;37.764;2022-12-01T12:17:29;37.92;;;13.75;;
44197;SDS011;30157;55.512;37.764;2022-12-01T12:26:17;40.45;;;15.50;;
44197;SDS011;30157;55.512;37.764;2022-12-01T12:39:18;42.20;;;15.23;;
44197;SDS011;30157;55.512;37.764;2022-12-01T12:41:49;34.20;;;14.40;;
44197;SDS011;30157;55.512;37.764;2022-12-01T12:47:12;39.78;;;14.90;;
44197;SDS011;30157;55.512;37.764;2022-12-01T12:49:49;38.50;;;14.50;;
44197;SDS011;30157;55.512;37.764;2022-12-01T12:52:42;38.67;;;16.75;;
44197;SDS011;30157;55.512;37.764;2022-12-01T12:58:21;36.42;;;14.90;;
44197;SDS011;30157;55.512;37.764;2022-12-01T13:01:11;39.25;;;15.23;;
44197;SDS011;30157;55.512;37.764;2022-12-01T13:11:31;34.80;;;13.93;;
44197;SDS011;30157;55.512;37.764;2022-12-01T13:14:06;39.22;;;15.50;;
44197;SDS011;30157;55.512;37.764;2022-12-01T13:16:42;46.13;;;16.25;;
44197;SDS011;30157;55.512;37.764;2022-12-01T13:19:24;49.05;;;15.57;;
44197;SDS011;30157;55.512;37.764;2022-12-01T13:21:56;31.38;;;11.52;;
44197;SDS011;30157;55.512;37.764;2022-12-01T13:24:26;42.40;;;16.05;;
44197;SDS011;30157;55.512;37.764;2022-12-01T13:26:58;46.55;;;15.65;;
44197;SDS011;30157;55.512;37.764;2022-12-01T13:29:34;44.75;;;17.42;;
44197;SDS011;30157;55.512;37.764;2022-12-01T13:32:02;43.60;;;16.83;;
44197;SDS011;30157;55.512;37.764;2022-12-01T13:34:32;47.65;;;16.38;;
44197;SDS011;30157;55.512;37.764;2022-12-01T13:37:11;42.03;;;15.43;;
44197;SDS011;30157;55.512;37.764;2022-12-01T13:39:38;42.58;;;17.63;;
44197;SDS011;30157;55.512;37.764;2022-12-01T13:42:24;39.88;;;15.80;;
44197;SDS011;30157;55.512;37.764;2022-12-01T13:44:54;43.65;;;16.85;;
44197;SDS011;30157;55.512;37.764;2022-12-01T13:49:49;45.00;;;17.98;;
44197;SDS011;30157;55.512;37.764;2022-12-01T13:57:36;38.55;;;15.52;;
44197;SDS011;30157;55.512;37.764;2022-12-01T14:00:37;44.05;;;16.40;;
44197;SDS011;30157;55.512;37.764;2022-12-01T14:10:58;43.53;;;17.60;;
44197;SDS011;30157;55.512;37.764;2022-12-01T14:13:27;42.45;;;17.17;;
44197;SDS011;30157;55.512;37.764;2022-12-01T14:15:58;48.80;;;18.10;;
44197;SDS011;30157;55.512;37.764;2022-12-01T14:18:39;50.60;;;18.25;;
44197;SDS011;30157;55.512;37.764;2022-12-01T14:21:13;49.72;;;18.17;;
44197;SDS011;30157;55.512;37.764;2022-12-01T14:23:57;49.40;;;18.52;;
44197;SDS011;30157;55.512;37.764;2022-12-01T14:26:25;49.63;;;18.33;;
44197;SDS011;30157;55.512;37.764;2022-12-01T14:34:05;48.47;;;17.05;;
44197;SDS011;30157;55.512;37.764;2022-12-01T14:46:50;53.28;;;18.98;;
44197;SDS011;30157;55.512;37.764;2022-12-01T14:49:25;48.17;;;19.48;;
44197;SDS011;30157;55.512;37.764;2022-12-01T14:52:16;53.20;;;20.63;;
44197;SDS011;30157;55.512;37.764;2022-12-01T14:54:58;53.08;;;18.88;;
44197;SDS011;30157;55.512;37.764;2022-12-01T14:57:32;51.92;;;18.95;;
44197;SDS011;30157;55.512;37.764;2022-12-01T15:02:42;57.67;;;22.25;;
44197;SDS011;30157;55.512;37.764;2022-12-01T15:05:13;57.88;;;22.35;;
44197;SDS011;30157;55.512;37.764;2022-12-01T15:07:45;54.67;;;20.77;;
44197;SDS011;30157;55.512;37.764;2022-12-01T15:10:21;53.28;;;19.90;;
44197;SDS011;30157;55.512;37.764;2022-12-01T15:12:49;50.72;;;19.00;;
44197;SDS011;30157;55.512;37.764;2022-12-01T15:17:45;56.50;;;20.65;;
44197;SDS011;30157;55.512;37.764;2022-12-01T15:20:28;57.58;;;22.45;;
44197;SDS011;30157;55.512;37.764;2022-12-01T15:23:07;65.25;;;20.77;;
44197;SDS011;30157;55.512;37.764;2022-12-01T15:25:37;53.17;;;20.15;;
44197;SDS011;30157;55.512;37.764;2022-12-01T15:28:14;49.45;;;18.77;;
44197;SDS011;30157;55.512;37.764;2022-12-01T15:30:44;61.05;;;21.20;;
44197;SDS011;30157;55.512;37.764;2022-12-01T15:35:48;58.25;;;20.17;;
44197;SDS011;30157;55.512;37.764;2022-12-01T15:38:16;56.97;;;21.55;;
44197;SDS011;30157;55.512;37.764;2022-12-01T15:40:45;65.45;;;22.58;;
44197;SDS011;30157;55.512;37.764;2022-12-01T15:43:22;61.58;;;22.25;;
44197;SDS011;30157;55.512;37.764;2022-12-01T15:45:56;54.40;;;20.85;;
44197;SDS011;30157;55.512;37.764;2022-12-01T15:48:28;63.35;;;22.63;;
44197;SDS011;30157;55.512;37.764;2022-12-01T15:51:18;60.17;;;20.52;;
44197;SDS011;30157;55.512;37.764;2022-12-01T15:53:55;62.00;;;22.58;;
44197;SDS011;30157;55.512;37.764;2022-12-01T15:56:32;60.28;;;21.48;;
44197;SDS011;30157;55.512;37.764;2022-12-01T15:59:08;59.10;;;20.23;;
44197;SDS011;30157;55.512;37.764;2022-12-01T16:01:37;62.28;;;20.92;;
44197;SDS011;30157;55.512;37.764;2022-12-01T16:04:05;55.63;;;21.88;;
44197;SDS011;30157;55.512;37.764;2022-12-01T16:06:40;53.28;;;20.33;;
44197;SDS011;30157;55.512;37.764;2022-12-01T16:09:21;61.22;;;20.92;;
44197;SDS011;30157;55.512;37.764;2022-12-01T16:17:23;50.25;;;18.80;;
44197;SDS011;30157;55.512;37.764;2022-12-01T16:20:13;52.28;;;18.67;;
44197;SDS011;30157;55.512;37.764;2022-12-01T16:22:45;46.40;;;17.27;;
44197;SDS011;30157;55.512;37.764;2022-12-01T16:25:22;44.40;;;15.52;;
44197;SDS011;30157;55.512;37.764;2022-12-01T16:27:54;46.83;;;18.38;;
44197;SDS011;30157;55.512;37.764;2022-12-01T16:30:22;45.55;;;17.58;;
44197;SDS011;30157;55.512;37.764;2022-12-01T16:32:50;48.13;;;18.63;;
44197;SDS011;30157;55.512;37.764;2022-12-01T16:35:37;52.28;;;18.35;;
44197;SDS011;30157;55.512;37.764;2022-12-01T16:38:09;47.92;;;17.38;;
44197;SDS011;30157;55.512;37.764;2022-12-01T16:40:43;54.67;;;17.83;;
44197;SDS011;30157;55.512;37.764;2022-12-01T16:43:19;54.92;;;20.63;;
44197;SDS011;30157;55.512;37.764;2022-12-01T16:45:47;42.25;;;16.23;;
44197;SDS011;30157;55.512;37.764;2022-12-01T16:48:14;49.05;;;18.75;;
44197;SDS011;30157;55.512;37.764;2022-12-01T16:50:43;47.47;;;17.58;;
44197;SDS011;30157;55.512;37.764;2022-12-01T16:53:10;51.90;;;19.05;;